Weather History for Lancaster, TX

Change the Weather History Date:

Friday, October 4, 2013

  Actual Average (KRBD) Record (KRBD)
Temperature  
Mean Temperature 80 °F -  
Max Temperature 88 °F 79 °F 91 °F (1998)
Min Temperature 72 °F 58 °F 48 °F (2014)
Cooling Degree Days 14    
Growing Degree Days 30 (Base 50)    
Moisture  
Dew Point 69 °F    
Average Humidity 71    
Maximum Humidity 93    
Minimum Humidity 51    
Precipitation  
Precipitation 0.00 in - - ()
Sea Level Pressure  
Sea Level Pressure 29.89 in    
Wind  
Wind Speed 10 mph (SSE)    
Max Wind Speed 16 mph    
Max Gust Speed 23 mph    
Visibility 10 miles    
Events      
Averages and records for this station are not official NWS values.
T = Trace of Precipitation, MM = Missing Value Source: NWS Daily Summary

Daily Weather History Graph

Daily Weather History Graph

Search for Another Location

Airport:

Trip Planner

Search our weather history database for the weather conditions in past years. The results will help you decide how hot, cold, wet, or windy it might be!

Date:

Astronomy

Oct. 04, 2013 Rise Set
Actual Time 7:23 AM CDT 7:07 PM CDT
Civil Twilight 6:58 AM CDT 7:31 PM CDT
Nautical Twilight 6:30 AM CDT 8:00 PM CDT
Astronomical Twilight 6:01 AM CDT 8:28 PM CDT
Moon 6:59 AM CDT (10/4) 6:52 PM CDT (10/4)
Length of Visible Light 12h 33m
Length of Day
11h 44m
Waning Crescent, 0% of the Moon is Illuminated
Oct 4
Waning Crescent
Oct 4
New
Oct 11
First Quarter
Oct 18
Full
Oct 26
Last Quarter

Hourly Weather History & Observations

Time (CDT) Temp. Heat Index Dew Point Humidity Pressure Visibility Wind Dir Wind Speed Gust Speed Precip Events Conditions
12:15 AM 77.0 °F - 71.1 °F 82% 29.88 in 10.0 mi SSE 6.9 mph - N/A   Clear
12:35 AM 77.0 °F - 71.1 °F 82% 29.88 in 10.0 mi SSE 9.2 mph - N/A   Clear
12:55 AM 77.0 °F - 71.1 °F 82% 29.88 in 10.0 mi SSE 10.4 mph - N/A   Clear
1:15 AM 76.6 °F - 71.1 °F 83% 29.88 in 10.0 mi SSE 9.2 mph - N/A   Clear
1:35 AM 76.1 °F - 70.9 °F 84% 29.89 in 10.0 mi SSE 9.2 mph - N/A   Clear
1:55 AM 76.1 °F - 71.1 °F 84% 29.89 in 10.0 mi SSE 11.5 mph - N/A   Clear
2:15 AM 75.6 °F - 70.9 °F 85% 29.89 in 10.0 mi South 10.4 mph - N/A   Clear
2:35 AM 75.2 °F - 70.9 °F 86% 29.90 in 10.0 mi South 9.2 mph - N/A   Clear
2:55 AM 75.2 °F - 70.9 °F 86% 29.90 in 10.0 mi South 8.1 mph - N/A   Clear
3:15 AM 74.8 °F - 70.9 °F 87% 29.89 in 10.0 mi South 9.2 mph - N/A   Clear
3:35 AM 74.7 °F - 70.9 °F 88% 29.90 in 10.0 mi SSE 9.2 mph - N/A   Clear
3:55 AM 74.3 °F - 70.9 °F 89% 29.89 in 10.0 mi SSE 9.2 mph - N/A   Clear
4:15 AM 74.3 °F - 70.9 °F 89% 29.89 in 10.0 mi South 8.1 mph 16.1 mph N/A   Clear
4:35 AM 73.8 °F - 70.9 °F 91% 29.90 in 10.0 mi South 6.9 mph - N/A   Clear
4:55 AM 73.4 °F - 70.7 °F 91% 29.90 in 10.0 mi SSE 8.1 mph - N/A   Scattered Clouds
5:15 AM 73.6 °F - 70.9 °F 91% 29.90 in 10.0 mi South 9.2 mph - N/A   Overcast
5:35 AM 73.8 °F - 70.9 °F 91% 29.91 in 10.0 mi South 8.1 mph - N/A   Overcast
5:55 AM 74.1 °F - 70.9 °F 90% 29.92 in 10.0 mi South 6.9 mph - N/A   Overcast
6:15 AM 74.3 °F - 70.9 °F 89% 29.92 in 10.0 mi South 8.1 mph - N/A   Overcast
6:35 AM 74.3 °F - 70.7 °F 88% 29.92 in 10.0 mi South 9.2 mph - N/A   Overcast
6:55 AM 73.8 °F - 70.5 °F 90% 29.92 in 10.0 mi South 8.1 mph - N/A   Mostly Cloudy
7:15 AM 73.4 °F - 70.5 °F 91% 29.92 in 10.0 mi SSE 6.9 mph - N/A   Scattered Clouds
7:35 AM 73.2 °F - 70.3 °F 91% 29.92 in 10.0 mi SSE 6.9 mph - N/A   Clear
7:55 AM 72.9 °F - 70.7 °F 93% 29.92 in 10.0 mi South 4.6 mph - N/A   Clear
8:15 AM 73.4 °F - 70.7 °F 91% 29.92 in 10.0 mi South 6.9 mph - N/A   Mostly Cloudy
8:35 AM 74.3 °F - 70.7 °F 88% 29.92 in 10.0 mi South 8.1 mph - N/A   Overcast
8:55 AM 75.2 °F - 70.9 °F 86% 29.93 in 10.0 mi South 6.9 mph - N/A   Overcast
9:15 AM 76.5 °F - 70.0 °F 80% 29.93 in 10.0 mi SSE 10.4 mph - N/A   Mostly Cloudy
9:35 AM 77.0 °F - 70.3 °F 80% 29.93 in 10.0 mi South 10.4 mph 18.4 mph N/A   Scattered Clouds
9:55 AM 76.3 °F - 70.3 °F 82% 29.94 in 10.0 mi South 9.2 mph - N/A   Mostly Cloudy
10:15 AM 77.9 °F - 70.0 °F 76% 29.94 in 10.0 mi South 12.7 mph 18.4 mph N/A   Mostly Cloudy
10:35 AM 77.9 °F - 69.4 °F 75% 29.94 in 10.0 mi South 9.2 mph 18.4 mph N/A   Scattered Clouds
10:55 AM 81.1 °F 84.4 °F 69.3 °F 67% 29.94 in 10.0 mi South 13.8 mph 18.4 mph N/A   Mostly Cloudy
11:15 AM 81.7 °F 85.4 °F 70.0 °F 68% 29.94 in 10.0 mi SW 10.4 mph 18.4 mph N/A   Mostly Cloudy
11:35 AM 80.6 °F 83.9 °F 69.8 °F 70% 29.94 in 10.0 mi SSW 12.7 mph 16.1 mph N/A   Overcast
11:55 AM 82.4 °F 85.8 °F 69.3 °F 64% 29.93 in 10.0 mi South 10.4 mph 17.3 mph N/A   Overcast
12:15 PM 82.9 °F 86.7 °F 69.6 °F 64% 29.93 in 10.0 mi SSW 12.7 mph 16.1 mph N/A   Mostly Cloudy
12:35 PM 83.3 °F 86.6 °F 68.7 °F 61% 29.92 in 10.0 mi SW 12.7 mph - N/A   Mostly Cloudy
12:55 PM 84.6 °F 88.8 °F 69.6 °F 61% 29.92 in 10.0 mi South 11.5 mph - N/A   Mostly Cloudy
1:15 PM 84.2 °F 87.9 °F 68.9 °F 60% 29.91 in 10.0 mi SSW 10.4 mph 16.1 mph N/A   Mostly Cloudy
1:35 PM 86.0 °F 89.4 °F 68.2 °F 55% 29.90 in 10.0 mi South 12.7 mph 18.4 mph N/A   Mostly Cloudy
1:55 PM 85.3 °F 88.2 °F 67.5 °F 55% 29.89 in 10.0 mi SSE 13.8 mph 23.0 mph N/A   Mostly Cloudy
2:15 PM 86.7 °F 89.9 °F 67.6 °F 53% 29.88 in 10.0 mi South 12.7 mph 17.3 mph N/A   Mostly Cloudy
2:35 PM 85.5 °F 87.9 °F 66.4 °F 53% 29.88 in 10.0 mi South 10.4 mph - N/A   Mostly Cloudy
2:55 PM 87.4 °F 90.8 °F 67.6 °F 52% 29.87 in 10.0 mi SSE 16.1 mph 21.9 mph N/A   Mostly Cloudy
3:15 PM 87.3 °F 90.2 °F 66.9 °F 51% 29.87 in 10.0 mi SSW 9.2 mph 21.9 mph N/A   Scattered Clouds
3:35 PM 86.4 °F 89.4 °F 67.3 °F 53% 29.87 in 10.0 mi SSE 11.5 mph 18.4 mph N/A   Mostly Cloudy
3:55 PM 87.1 °F 90.2 °F 67.3 °F 52% 29.87 in 10.0 mi South 11.5 mph 20.7 mph N/A   Mostly Cloudy
4:15 PM 86.9 °F 89.9 °F 67.3 °F 52% 29.86 in 10.0 mi SSE 16.1 mph 20.7 mph N/A   Mostly Cloudy
4:35 PM 86.2 °F 88.8 °F 66.6 °F 52% 29.86 in 10.0 mi South 13.8 mph 20.7 mph N/A   Scattered Clouds
4:55 PM 87.4 °F 90.5 °F 67.1 °F 51% 29.86 in 10.0 mi South 15.0 mph 18.4 mph N/A   Mostly Cloudy
5:15 PM 86.7 °F 89.6 °F 66.9 °F 52% 29.85 in 10.0 mi South 15.0 mph - N/A   Scattered Clouds
5:35 PM 86.9 °F 89.6 °F 66.7 °F 51% 29.86 in 10.0 mi SSE 11.5 mph - N/A   Clear
5:55 PM 86.9 °F 89.6 °F 66.9 °F 51% 29.86 in 10.0 mi SSE 13.8 mph - N/A   Scattered Clouds
6:15 PM 86.2 °F 88.8 °F 66.9 °F 52% 29.86 in 10.0 mi SSE 13.8 mph 19.6 mph N/A   Clear
6:35 PM 85.5 °F 87.9 °F 66.7 °F 53% 29.86 in 10.0 mi SSE 11.5 mph 17.3 mph N/A   Clear
6:55 PM 84.4 °F 86.6 °F 66.2 °F 54% 29.86 in 10.0 mi SSE 11.5 mph - N/A   Clear
7:15 PM 83.3 °F 85.7 °F 66.4 °F 57% 29.86 in 10.0 mi SSE 10.4 mph - N/A   Clear
7:35 PM 82.4 °F 84.8 °F 66.7 °F 59% 29.86 in 10.0 mi SE 10.4 mph - N/A   Clear
7:55 PM 81.5 °F 84.1 °F 67.3 °F 62% 29.87 in 10.0 mi SE 10.4 mph - N/A   Clear
8:15 PM 80.8 °F 83.2 °F 67.3 °F 63% 29.87 in 10.0 mi SE 8.1 mph - N/A   Clear
8:35 PM 80.6 °F 82.9 °F 67.1 °F 63% 29.87 in 10.0 mi SE 10.4 mph - N/A   Clear
8:55 PM 79.7 °F - 67.1 °F 65% 29.87 in 10.0 mi SSE 9.2 mph - N/A   Clear
9:15 PM 79.2 °F - 66.7 °F 66% 29.88 in 10.0 mi SSE 10.4 mph - N/A   Clear
9:35 PM 79.0 °F - 66.7 °F 66% 29.88 in 10.0 mi SSE 8.1 mph - N/A   Clear
9:55 PM 78.8 °F - 67.1 °F 67% 29.88 in 10.0 mi SSE 9.2 mph - N/A   Clear
10:15 PM 78.6 °F - 67.1 °F 68% 29.88 in 10.0 mi SSE 9.2 mph - N/A   Clear
10:35 PM 78.8 °F - 67.1 °F 67% 29.88 in 10.0 mi SSE 10.4 mph - N/A   Clear
10:55 PM 78.3 °F - 67.1 °F 68% 29.88 in 10.0 mi SSE 9.2 mph - N/A   Clear
11:15 PM 78.3 °F - 67.1 °F 68% 29.88 in 10.0 mi SSE 9.2 mph - N/A   Clear
11:35 PM 77.9 °F - 66.7 °F 68% 29.88 in 10.0 mi SSE 5.8 mph - N/A   Clear
11:55 PM 77.2 °F - 66.6 °F 70% 29.89 in 10.0 mi SSE 4.6 mph - N/A   Clear